Аэропорт: Ужгород. Ужгород

ICAO: UKLU

METAR:
Информация по данной станции не доступна
METAR:
2020-01-26 14:05:00
TAF UKLU 261405Z 2615/2624 VRB01MPS 5000 BR OVC020 TX01/2615Z TN00/2624Z TEMPO 2615/2621 1000 BR OVC003